Terminal Aerodrome Forecast
Issued by NWS Jackson, MS

Home | Current Version | Previous Version | Text Only | Print | Product List | Glossary On
Versions: 1 2 3 4 5 6 7 8 9 10 11 12 13 14 15 16 17 18
000
FTUS44 KJAN 210500
TAFHBG
TAF
KHBG 210533Z 2106/2206 VRB03KT P6SM FEW250
     FM210930 15003KT 1SM BR VV003
     FM211300 17004KT 5SM BR BKN006
     FM211430 19006KT P6SM SCT030 SCT250
     FM220000 17003KT P6SM FEW050 SCT120=

USA.gov is the U.S. government's official web portal to all federal, state and local government web resources and services.